createdAt,value
2023-08-28T00:00:30.871Z,5.60
2023-08-28T00:03:01.133Z,5.43
2023-08-28T00:05:33.100Z,7.33
2023-08-28T00:08:03.104Z,4.57
2023-08-28T00:10:32.977Z,4.60
2023-08-28T00:13:03.369Z,5.87
2023-08-28T00:15:36.242Z,4.43
2023-08-28T00:18:06.557Z,4.17
2023-08-28T00:20:36.417Z,8.73
2023-08-28T00:23:06.574Z,4.67
2023-08-28T00:25:36.450Z,5.00
2023-08-28T00:28:06.656Z,5.40
2023-08-28T00:30:39.143Z,5.73
2023-08-28T00:33:09.041Z,7.07
2023-08-28T00:35:38.992Z,9.63
2023-08-28T00:38:08.932Z,6.57
2023-08-28T00:40:42.531Z,6.47
2023-08-28T00:43:12.549Z,7.00
2023-08-28T00:45:46.749Z,8.23
2023-08-28T00:48:23.523Z,7.57
2023-08-28T00:50:54.843Z,5.13
2023-08-28T00:53:25.526Z,6.43
2023-08-28T00:55:56.030Z,6.33
2023-08-28T00:58:26.136Z,5.77
2023-08-28T01:00:58.630Z,8.47
2023-08-28T01:03:28.625Z,4.97
2023-08-28T01:06:07.561Z,7.80
2023-08-28T01:08:49.361Z,10.33
2023-08-28T01:11:39.773Z,13.93
2023-08-28T01:14:18.950Z,6.23
2023-08-28T01:16:54.811Z,9.13
2023-08-28T01:19:33.265Z,10.77
2023-08-28T01:22:12.737Z,8.93
2023-08-28T01:24:47.800Z,11.70
2023-08-28T01:27:21.714Z,8.83
2023-08-28T01:30:10.801Z,11.20
2023-08-28T01:32:41.092Z,15.40
2023-08-28T01:35:12.989Z,8.60
2023-08-28T01:37:52.093Z,10.27
2023-08-28T01:40:27.476Z,10.43
2023-08-28T01:43:01.872Z,18.03
2023-08-28T01:45:32.483Z,15.60
2023-08-28T01:48:02.610Z,10.90
2023-08-28T01:50:32.535Z,9.30
2023-08-28T01:53:02.649Z,13.63
2023-08-28T01:56:19.211Z,14.17
2023-08-28T01:58:54.556Z,11.67
2023-08-28T02:01:25.184Z,13.37
2023-08-28T02:03:55.220Z,13.80
2023-08-28T02:06:25.413Z,10.83
2023-08-28T02:08:55.404Z,11.03
2023-08-28T02:11:25.318Z,10.83
2023-08-28T02:13:58.153Z,13.13
2023-08-28T02:16:28.712Z,11.50
2023-08-28T02:18:58.893Z,14.73
2023-08-28T02:21:28.805Z,10.97
2023-08-28T02:23:58.654Z,12.10
2023-08-28T02:26:28.641Z,13.10
2023-08-28T02:29:01.099Z,12.30
2023-08-28T02:31:31.023Z,12.80
2023-08-28T02:34:00.966Z,11.37
2023-08-28T02:36:32.641Z,16.00
2023-08-28T02:39:02.535Z,15.03
2023-08-28T02:41:32.780Z,12.57
2023-08-28T02:44:05.284Z,12.90
2023-08-28T02:46:35.175Z,10.57
2023-08-28T02:49:05.055Z,10.60
2023-08-28T02:51:34.971Z,11.20
2023-08-28T02:54:04.904Z,11.20
2023-08-28T02:56:40.846Z,11.70
2023-08-28T02:59:13.661Z,9.97
2023-08-28T03:01:43.768Z,13.23
2023-08-28T03:04:13.761Z,10.33
2023-08-28T03:06:43.794Z,16.33
2023-08-28T03:09:13.964Z,15.03
2023-08-28T03:11:44.151Z,13.90
2023-08-28T03:14:19.540Z,12.20
2023-08-28T03:16:49.464Z,11.30
2023-08-28T03:19:19.378Z,14.43
2023-08-28T03:21:50.532Z,12.40
2023-08-28T03:24:21.109Z,10.87
2023-08-28T03:26:51.127Z,9.80
2023-08-28T03:29:23.583Z,12.30
2023-08-28T03:31:53.680Z,15.67
2023-08-28T03:34:23.638Z,11.87
2023-08-28T03:36:53.512Z,12.93
2023-08-28T03:39:23.403Z,9.90
2023-08-28T03:41:53.246Z,12.33
2023-08-28T03:44:26.353Z,13.33
2023-08-28T03:46:56.564Z,12.03
2023-08-28T03:49:26.655Z,15.43
2023-08-28T03:52:00.706Z,13.47
2023-08-28T03:54:31.458Z,12.30
2023-08-28T03:57:01.512Z,15.80
2023-08-28T03:59:34.734Z,16.30
2023-08-28T04:02:04.645Z,12.47
2023-08-28T04:04:34.503Z,12.90
2023-08-28T04:07:05.231Z,12.53
2023-08-28T04:09:35.334Z,15.47
2023-08-28T04:12:05.672Z,13.20
2023-08-28T04:14:38.221Z,15.67
2023-08-28T04:17:08.261Z,15.00
2023-08-28T04:19:38.655Z,13.30
2023-08-28T04:22:08.572Z,16.73
2023-08-28T04:24:38.467Z,16.40
2023-08-28T04:27:08.706Z,13.90
2023-08-28T04:29:42.102Z,14.37
2023-08-28T04:32:11.968Z,15.77
2023-08-28T04:34:41.848Z,15.97
2023-08-28T04:37:11.707Z,15.97
2023-08-28T04:39:41.598Z,13.50
2023-08-28T04:42:11.453Z,14.67
2023-08-28T04:44:45.299Z,20.50
2023-08-28T04:47:15.350Z,17.67
2023-08-28T04:49:45.360Z,19.17
2023-08-28T04:52:15.248Z,18.47
2023-08-28T04:54:45.793Z,20.13
2023-08-28T04:57:17.184Z,21.20
2023-08-28T04:59:50.039Z,17.87
2023-08-28T05:02:22.288Z,25.60
2023-08-28T05:04:52.301Z,19.17
2023-08-28T05:07:22.295Z,16.43
2023-08-28T05:09:52.167Z,17.60
2023-08-28T05:12:22.782Z,18.43
2023-08-28T05:14:55.592Z,17.80
2023-08-28T05:17:25.540Z,15.63
2023-08-28T05:19:55.594Z,18.93
2023-08-28T05:22:25.585Z,22.20
2023-08-28T05:24:55.461Z,22.23
2023-08-28T05:27:25.441Z,19.97
2023-08-28T05:29:57.914Z,19.60
2023-08-28T05:32:28.093Z,18.97
2023-08-28T05:34:59.590Z,20.77
2023-08-28T05:37:29.834Z,19.93
2023-08-28T05:39:59.766Z,22.67
2023-08-28T05:42:29.646Z,24.83
2023-08-28T05:45:02.943Z,29.80
2023-08-28T05:47:34.380Z,25.50
2023-08-28T05:50:04.467Z,30.63
2023-08-28T05:52:34.389Z,24.70
2023-08-28T05:55:05.054Z,29.47
2023-08-28T05:57:35.822Z,29.07
2023-08-28T06:00:10.141Z,27.03
2023-08-28T06:02:43.059Z,24.57
2023-08-28T06:05:13.558Z,30.43
2023-08-28T06:07:46.062Z,23.27
2023-08-28T06:10:19.355Z,22.80
2023-08-28T06:12:49.597Z,22.70
2023-08-28T06:15:22.492Z,26.40
2023-08-28T06:17:53.452Z,23.53
2023-08-28T06:20:23.818Z,35.67
2023-08-28T06:22:53.766Z,26.13
2023-08-28T06:25:23.808Z,27.20
2023-08-28T06:27:54.210Z,27.13
2023-08-28T06:30:26.845Z,26.47
2023-08-28T06:32:59.676Z,24.87
2023-08-28T06:35:30.190Z,22.70
2023-08-28T06:38:00.145Z,23.30
2023-08-28T06:40:30.056Z,26.97
2023-08-28T06:43:00.046Z,20.80
2023-08-28T06:45:32.776Z,22.23
2023-08-28T06:48:02.680Z,21.97
2023-08-28T06:50:32.645Z,28.60
2023-08-28T06:53:03.949Z,25.33
2023-08-28T06:55:37.230Z,18.90
2023-08-28T06:58:07.757Z,23.50
2023-08-28T07:00:40.612Z,23.80
2023-08-28T07:03:10.779Z,25.20
2023-08-28T07:05:40.915Z,27.93
2023-08-28T07:08:10.831Z,22.30
2023-08-28T07:10:40.800Z,33.03
2023-08-28T07:13:10.767Z,23.90
2023-08-28T07:16:01.315Z,29.30
2023-08-28T07:18:31.626Z,20.80
2023-08-28T07:21:01.478Z,25.00
2023-08-28T07:23:31.361Z,19.17
2023-08-28T07:26:04.091Z,22.20
2023-08-28T07:28:34.190Z,18.27
2023-08-28T07:31:06.733Z,20.77
2023-08-28T07:33:36.719Z,22.50
2023-08-28T07:36:07.319Z,18.23
2023-08-28T07:38:37.325Z,19.50
2023-08-28T07:41:07.442Z,19.20
2023-08-28T07:43:37.337Z,13.37
2023-08-28T07:46:09.861Z,16.87
2023-08-28T07:48:39.741Z,18.20
2023-08-28T07:51:09.684Z,21.03
2023-08-28T07:53:41.250Z,18.17
2023-08-28T07:56:12.281Z,12.40
2023-08-28T07:58:42.229Z,12.40
2023-08-28T08:01:15.515Z,19.70
2023-08-28T08:03:45.437Z,16.70
2023-08-28T08:06:15.335Z,16.40
2023-08-28T08:08:46.644Z,15.27
2023-08-28T08:11:16.535Z,14.60
2023-08-28T08:13:46.418Z,21.90
2023-08-28T08:16:18.915Z,17.57
2023-08-28T08:18:48.852Z,14.33
2023-08-28T08:21:19.499Z,13.73
2023-08-28T08:23:49.494Z,17.40
2023-08-28T08:26:19.544Z,12.33
2023-08-28T08:28:49.426Z,20.00
2023-08-28T08:31:21.960Z,19.03
2023-08-28T08:33:51.876Z,12.60
2023-08-28T08:36:21.894Z,13.97
2023-08-28T08:38:51.790Z,11.90
2023-08-28T08:41:21.734Z,12.90
2023-08-28T08:43:51.679Z,11.10
2023-08-28T08:46:26.503Z,9.80
2023-08-28T08:49:00.150Z,9.40
2023-08-28T08:51:35.853Z,6.80
2023-08-28T08:54:10.503Z,10.33
2023-08-28T08:56:44.246Z,10.40
2023-08-28T08:59:14.416Z,9.63
2023-08-28T09:01:47.110Z,12.30
2023-08-28T09:04:17.819Z,12.60
2023-08-28T09:06:48.881Z,9.83
2023-08-28T09:09:19.998Z,7.50
2023-08-28T09:11:50.125Z,8.30
2023-08-28T09:14:20.224Z,8.20
2023-08-28T09:16:52.735Z,9.70
2023-08-28T09:19:22.845Z,8.30
2023-08-28T09:21:53.414Z,9.43
2023-08-28T09:24:27.214Z,7.00
2023-08-28T09:26:57.624Z,11.93
2023-08-28T09:29:28.179Z,6.23
2023-08-28T09:32:07.236Z,7.83
2023-08-28T09:34:42.440Z,11.33
2023-08-28T09:37:13.450Z,10.40
2023-08-28T09:39:44.021Z,9.60
2023-08-28T09:42:16.114Z,6.50
2023-08-28T09:44:53.110Z,8.73
2023-08-28T09:47:27.114Z,8.20
2023-08-28T09:49:57.184Z,8.47
2023-08-28T09:52:30.414Z,6.63
2023-08-28T09:55:08.785Z,6.70
2023-08-28T09:57:38.748Z,4.43
2023-08-28T10:00:10.431Z,3.00
2023-08-28T10:02:44.437Z,4.13
2023-08-28T10:05:16.825Z,5.83
2023-08-28T10:07:50.437Z,2.50
2023-08-28T10:10:20.566Z,3.27
2023-08-28T10:12:51.334Z,5.43
2023-08-28T10:15:22.726Z,3.63
2023-08-28T10:17:56.113Z,2.57
2023-08-28T10:20:28.113Z,6.40
2023-08-28T10:22:58.857Z,8.37
2023-08-28T10:25:29.508Z,2.10
2023-08-28T10:28:02.154Z,2.97
2023-08-28T10:30:32.472Z,2.50
2023-08-28T10:33:07.571Z,1.60
2023-08-28T10:35:38.464Z,6.43
2023-08-28T10:38:09.105Z,3.40
2023-08-28T10:40:39.822Z,3.10
2023-08-28T10:43:10.968Z,2.20
2023-08-28T10:45:42.483Z,4.27
2023-08-28T10:48:14.985Z,3.80
2023-08-28T10:50:44.885Z,1.67
2023-08-28T10:53:17.899Z,3.03
2023-08-28T10:55:55.855Z,2.27
2023-08-28T10:58:26.111Z,1.53
2023-08-28T11:01:17.041Z,2.23
2023-08-28T11:04:02.550Z,2.30
2023-08-28T11:06:42.228Z,3.03
2023-08-28T11:09:40.588Z,1.33
2023-08-28T11:12:29.043Z,2.07
2023-08-28T11:15:04.989Z,7.23
2023-08-28T11:17:36.494Z,3.50
2023-08-28T11:20:11.378Z,2.03
2023-08-28T11:22:42.947Z,4.00
2023-08-28T11:25:14.306Z,1.20
2023-08-28T11:27:50.160Z,3.73
2023-08-28T11:30:21.838Z,3.20
2023-08-28T11:32:56.806Z,1.00
2023-08-28T11:35:29.339Z,4.40
2023-08-28T11:37:59.867Z,3.00
2023-08-28T11:40:30.114Z,4.90
2023-08-28T11:43:08.123Z,3.20
2023-08-28T11:45:38.833Z,2.70
2023-08-28T11:48:09.985Z,4.13
2023-08-28T11:50:42.493Z,1.73
2023-08-28T11:53:12.376Z,5.50
2023-08-28T11:55:43.114Z,3.93
2023-08-28T11:58:13.083Z,3.60
2023-08-28T12:00:45.583Z,4.40
2023-08-28T12:03:20.997Z,1.87
2023-08-28T12:05:53.539Z,1.30
2023-08-28T12:08:23.683Z,2.57
2023-08-28T12:10:54.976Z,3.67
2023-08-28T12:13:24.960Z,4.30
2023-08-28T12:15:54.799Z,1.23
2023-08-28T12:18:24.728Z,1.03
2023-08-28T12:21:05.888Z,4.80
2023-08-28T12:23:35.831Z,1.80
2023-08-28T12:26:05.812Z,2.80
2023-08-28T12:28:36.114Z,2.20
2023-08-28T12:31:06.148Z,4.30
2023-08-28T12:33:42.543Z,5.43
2023-08-28T12:36:15.165Z,3.53
2023-08-28T12:38:49.756Z,1.50
2023-08-28T12:41:20.589Z,1.53
2023-08-28T12:43:50.844Z,4.27
2023-08-28T12:46:20.831Z,2.30
2023-08-28T12:48:51.156Z,1.33
2023-08-28T12:51:25.276Z,4.70
2023-08-28T12:53:55.243Z,4.93
2023-08-28T12:56:25.140Z,1.93
2023-08-28T12:58:55.028Z,1.87
2023-08-28T13:01:25.007Z,2.03
2023-08-28T13:03:54.964Z,3.37
2023-08-28T13:06:27.700Z,1.80
2023-08-28T13:08:57.608Z,4.40
2023-08-28T13:11:27.553Z,3.80
2023-08-28T13:13:57.470Z,2.80
2023-08-28T13:16:27.786Z,1.57
2023-08-28T13:18:57.927Z,6.20
2023-08-28T13:21:31.622Z,4.47
2023-08-28T13:24:01.718Z,3.63
2023-08-28T13:26:31.732Z,2.20
2023-08-28T13:29:02.129Z,2.50
2023-08-28T13:31:33.082Z,4.00
2023-08-28T13:34:03.850Z,4.30
2023-08-28T13:36:36.686Z,2.10
2023-08-28T13:39:06.815Z,1.30
2023-08-28T13:41:38.669Z,2.60
2023-08-28T13:44:08.870Z,2.37
2023-08-28T13:46:40.591Z,2.47
2023-08-28T13:49:10.545Z,3.07
2023-08-28T13:51:43.938Z,2.20
2023-08-28T13:54:17.151Z,1.30
2023-08-28T13:56:47.352Z,1.50
2023-08-28T13:59:17.292Z,1.70
2023-08-28T14:01:47.355Z,6.33
2023-08-28T14:04:17.290Z,1.33
2023-08-28T14:06:50.002Z,1.20
2023-08-28T14:09:19.875Z,14.67
2023-08-28T14:11:49.770Z,5.40
2023-08-28T14:14:19.792Z,7.03
2023-08-28T14:16:49.870Z,2.77
2023-08-28T14:19:19.771Z,1.87
2023-08-28T14:21:52.507Z,2.90
2023-08-28T14:24:29.440Z,1.73
2023-08-28T14:27:02.290Z,2.00
2023-08-28T14:29:32.283Z,1.00
2023-08-28T14:32:02.433Z,1.90
2023-08-28T14:34:32.440Z,3.00
2023-08-28T14:37:05.399Z,2.70
2023-08-28T14:39:35.474Z,1.00
2023-08-28T14:42:06.386Z,6.60
2023-08-28T14:44:39.375Z,2.67
2023-08-28T14:47:09.554Z,4.50
2023-08-28T14:49:39.480Z,2.00
2023-08-28T14:52:12.514Z,1.50
2023-08-28T14:54:42.488Z,4.50
2023-08-28T14:57:12.539Z,2.30
2023-08-28T14:59:42.465Z,2.20
2023-08-28T15:02:14.249Z,2.80
2023-08-28T15:04:46.641Z,1.20
2023-08-28T15:07:19.205Z,1.50
2023-08-28T15:09:54.824Z,3.30
2023-08-28T15:12:26.482Z,5.03
2023-08-28T15:14:56.437Z,5.53
2023-08-28T15:17:26.482Z,1.10
2023-08-28T15:19:56.428Z,3.17
2023-08-28T15:22:31.555Z,2.83
2023-08-28T15:25:02.566Z,1.80
2023-08-28T15:27:32.539Z,1.33
2023-08-28T15:30:02.853Z,3.67
2023-08-28T15:32:33.087Z,5.90
2023-08-28T15:35:05.024Z,1.33
2023-08-28T15:37:37.615Z,1.40
2023-08-28T15:40:08.968Z,1.77
2023-08-28T15:42:39.027Z,4.60
2023-08-28T15:45:10.290Z,7.00
2023-08-28T15:47:40.734Z,2.57
2023-08-28T15:50:11.318Z,1.10
2023-08-28T15:52:45.210Z,1.80
2023-08-28T15:55:15.228Z,2.90
2023-08-28T15:57:45.918Z,2.97
2023-08-28T16:00:17.314Z,1.20
2023-08-28T16:02:47.759Z,1.43
2023-08-28T16:05:18.020Z,3.97
2023-08-28T16:07:51.193Z,3.70
2023-08-28T16:10:21.294Z,4.47
2023-08-28T16:12:51.581Z,2.40
2023-08-28T16:15:27.730Z,1.20
2023-08-28T16:17:57.886Z,1.63
2023-08-28T16:20:30.073Z,1.57
2023-08-28T16:23:04.008Z,7.57
2023-08-28T16:25:34.253Z,1.43
2023-08-28T16:28:07.289Z,2.50
2023-08-28T16:30:37.672Z,2.23
2023-08-28T16:33:08.676Z,2.90
2023-08-28T16:35:51.269Z,2.60
2023-08-28T16:38:41.710Z,2.97
2023-08-28T16:41:21.639Z,1.80
2023-08-28T16:44:26.489Z,1.33
2023-08-28T16:50:23.561Z,1.93
2023-08-28T16:53:51.120Z,6.90
2023-08-28T17:07:30.625Z,3.27
2023-08-28T17:10:34.357Z,1.67
2023-08-28T17:13:04.468Z,2.40
2023-08-28T17:15:34.533Z,5.23
2023-08-28T17:18:05.047Z,7.63
2023-08-28T17:20:38.186Z,3.67
2023-08-28T17:23:08.327Z,1.80
2023-08-28T17:25:38.428Z,1.10
2023-08-28T17:28:10.629Z,5.93
2023-08-28T17:30:40.726Z,5.03
2023-08-28T17:33:10.739Z,2.03
2023-08-28T17:35:43.434Z,5.63
2023-08-28T17:38:13.435Z,2.50
2023-08-28T17:40:45.215Z,2.70
2023-08-28T17:43:15.325Z,1.63
2023-08-28T17:45:48.891Z,1.47
2023-08-28T17:48:18.991Z,1.67
2023-08-28T17:50:55.388Z,7.37
2023-08-28T17:53:25.437Z,12.70
2023-08-28T17:55:55.797Z,5.60
2023-08-28T17:58:25.862Z,1.43
2023-08-28T18:00:56.032Z,2.07
2023-08-28T18:03:38.503Z,1.47
2023-08-28T18:06:12.829Z,1.60
2023-08-28T18:08:43.106Z,3.63
2023-08-28T18:11:13.008Z,5.17
2023-08-28T18:13:44.566Z,3.80
2023-08-28T18:16:18.438Z,3.53
2023-08-28T18:18:49.074Z,2.40
2023-08-28T18:21:21.740Z,2.93
2023-08-28T18:23:52.592Z,2.50
2023-08-28T18:26:23.092Z,1.03
2023-08-28T18:28:54.671Z,1.90
2023-08-28T18:31:24.616Z,1.50
2023-08-28T18:33:55.724Z,2.73
2023-08-28T18:36:29.736Z,5.80
2023-08-28T18:38:59.941Z,1.40
2023-08-28T18:41:30.030Z,4.00
2023-08-28T18:44:00.251Z,2.87
2023-08-28T18:46:30.600Z,3.03
2023-08-28T18:49:00.426Z,2.33
2023-08-28T18:51:33.316Z,3.07
2023-08-28T18:54:04.318Z,2.80
2023-08-28T18:56:34.442Z,4.40
2023-08-28T18:59:04.795Z,1.70
2023-08-28T19:01:35.098Z,3.40
2023-08-28T19:04:05.887Z,4.80
2023-08-28T19:06:38.832Z,2.80
2023-08-28T19:09:09.837Z,2.27
2023-08-28T19:11:40.289Z,3.90
2023-08-28T19:14:10.671Z,2.77
2023-08-28T19:16:41.009Z,2.90
2023-08-28T19:19:11.275Z,2.13
2023-08-28T19:21:43.733Z,2.30
2023-08-28T19:24:13.940Z,3.63
2023-08-28T19:26:44.162Z,3.13
2023-08-28T19:29:14.072Z,3.07
2023-08-28T19:31:45.423Z,2.20
2023-08-28T19:34:15.691Z,6.13
2023-08-28T19:36:48.640Z,3.50
2023-08-28T19:39:18.809Z,4.67
2023-08-28T19:41:48.889Z,5.93
2023-08-28T19:44:18.842Z,3.80
2023-08-28T19:46:48.818Z,4.20
2023-08-28T19:49:18.739Z,3.40
2023-08-28T19:51:51.832Z,5.33
2023-08-28T19:54:23.485Z,2.67
2023-08-28T19:56:53.459Z,6.37
2023-08-28T19:59:23.791Z,3.80
2023-08-28T20:01:54.472Z,3.13
2023-08-28T20:04:27.447Z,3.60
2023-08-28T20:06:59.995Z,4.33
2023-08-28T20:09:30.179Z,2.50
2023-08-28T20:12:00.735Z,2.80
2023-08-28T20:14:30.957Z,6.00
2023-08-28T20:17:00.829Z,5.20
2023-08-28T20:19:30.841Z,7.60
2023-08-28T20:22:05.115Z,2.13
2023-08-28T20:24:36.973Z,1.60
2023-08-28T20:27:09.636Z,2.23
2023-08-28T20:29:40.724Z,3.17
2023-08-28T20:32:12.127Z,4.07
2023-08-28T20:34:42.033Z,5.43
2023-08-28T20:37:14.994Z,1.53
2023-08-28T20:39:44.903Z,8.50
2023-08-28T20:42:15.201Z,2.37
2023-08-28T20:44:45.416Z,5.73
2023-08-28T20:47:15.460Z,4.33
2023-08-28T20:49:47.444Z,2.17
2023-08-28T20:52:19.977Z,7.03
2023-08-28T20:54:49.941Z,9.50
2023-08-28T20:57:20.237Z,2.50
2023-08-28T20:59:50.225Z,2.40
2023-08-28T21:02:20.165Z,2.50
2023-08-28T21:04:50.144Z,3.30
2023-08-28T21:07:24.419Z,1.53
2023-08-28T21:09:54.629Z,4.60
2023-08-28T21:12:24.640Z,4.10
2023-08-28T21:14:54.598Z,1.57
2023-08-28T21:17:24.552Z,2.37
2023-08-28T21:19:54.759Z,10.70
2023-08-28T21:22:29.289Z,2.80
2023-08-28T21:24:59.179Z,2.40
2023-08-28T21:27:29.149Z,2.30
2023-08-28T21:29:59.218Z,5.73
2023-08-28T21:32:29.160Z,2.57
2023-08-28T21:34:59.110Z,1.97
2023-08-28T21:37:31.834Z,1.90
2023-08-28T21:40:01.700Z,3.93
2023-08-28T21:42:31.607Z,6.43
2023-08-28T21:45:01.479Z,3.30
2023-08-28T21:47:31.397Z,2.43
2023-08-28T21:50:20.181Z,4.47
2023-08-28T21:53:11.129Z,3.90
2023-08-28T21:55:59.979Z,3.60
2023-08-28T21:58:48.645Z,3.73
2023-08-28T22:01:37.711Z,2.90
2023-08-28T22:04:26.115Z,6.20
2023-08-28T22:07:15.236Z,4.30
2023-08-28T22:10:08.431Z,3.80
2023-08-28T22:12:48.708Z,3.63
2023-08-28T22:15:26.520Z,3.80
2023-08-28T22:17:56.421Z,3.50
2023-08-28T22:20:26.617Z,2.80
2023-08-28T22:22:56.832Z,5.30
2023-08-28T22:25:29.852Z,3.17
2023-08-28T22:27:59.713Z,1.90
2023-08-28T22:30:29.663Z,9.13
2023-08-28T22:32:59.553Z,10.73
2023-08-28T22:35:29.850Z,5.70
2023-08-28T22:37:59.914Z,1.90
2023-08-28T22:40:32.422Z,2.80
2023-08-28T22:43:02.980Z,3.67
2023-08-28T22:45:32.859Z,2.03
2023-08-28T22:48:03.037Z,3.80
2023-08-28T22:50:34.400Z,6.60
2023-08-28T22:53:04.285Z,6.97
2023-08-28T22:55:36.768Z,3.60
2023-08-28T22:58:07.323Z,10.67
2023-08-28T23:00:38.177Z,4.43
2023-08-28T23:03:08.681Z,5.17
2023-08-28T23:05:46.023Z,7.00
2023-08-28T23:08:15.956Z,5.53
2023-08-28T23:10:48.430Z,3.83
2023-08-28T23:13:18.405Z,4.67
2023-08-28T23:15:48.994Z,4.77
2023-08-28T23:18:19.373Z,4.33
2023-08-28T23:20:49.252Z,5.50
2023-08-28T23:23:19.129Z,3.97
2023-08-28T23:25:57.096Z,2.77
2023-08-28T23:28:27.499Z,4.17
2023-08-28T23:30:57.517Z,6.17
2023-08-28T23:33:27.432Z,2.77
2023-08-28T23:36:01.124Z,4.43
2023-08-28T23:38:30.983Z,5.00
2023-08-28T23:41:03.519Z,4.00
2023-08-28T23:43:33.434Z,5.30
2023-08-28T23:46:03.683Z,3.80
2023-08-28T23:48:33.711Z,4.17
2023-08-28T23:51:03.763Z,7.50
2023-08-28T23:53:31.070Z,4.50
2023-08-28T23:56:03.522Z,6.23
2023-08-28T23:58:33.377Z,4.50
